This is the latest recevied weather packets stored in our database for station/object EFHK. If no packets are shown the sender has not sent any weather packets the latest 10 day(s).
| Time | Temp. | Humidity | Pressure | Rain* | Wind** | Luminosity | Snow |
|---|---|---|---|---|---|---|---|
| 1777619602 | 13.89° C | 54% | 1020 hPa | - | - | - | - |
| 1777619001 | 13.89° C | 54% | 1020 hPa | - | - | - | - |
| 1777618403 | 13.89° C | 54% | 1020 hPa | - | - | - | - |
| 1777617801 | 11.67° C | 62% | 1020 hPa | - | - | - | - |
| 1777617199 | 11.67° C | 62% | 1020 hPa | - | - | - | - |
| 1777616601 | 11.67° C | 62% | 1020 hPa | - | - | - | - |
| 1777616001 | 10.56° C | 66% | 1020 hPa | - | - | - | - |
| 1777615400 | 10.56° C | 66% | 1020 hPa | - | - | - | - |
| 1777614803 | 10.56° C | 66% | 1020 hPa | - | - | - | - |
| 1777614201 | 10° C | 71% | 1020 hPa | - | - | - | - |
| 1777613604 | 10° C | 71% | 1020 hPa | - | - | - | - |
| 1777613004 | 10° C | 71% | 1020 hPa | - | - | - | - |
| 1777612399 | 8.89° C | 76% | 1020 hPa | - | - | - | - |
| 1777611923 | 8.89° C | 76% | 1020 hPa | - | - | - | - |
| 1777611203 | 8.89° C | 76% | 1020 hPa | - | - | - | - |
| 1777610597 | 7.78° C | 81% | 1020 hPa | - | - | - | - |
| 1777610003 | 7.78° C | 81% | 1020 hPa | - | - | - | - |
| 1777609402 | 7.78° C | 81% | 1020 hPa | - | - | - | - |
| 1777608802 | 6.67° C | 87% | 1020 hPa | - | - | - | - |
| 1777608208 | 6.67° C | 87% | 1020 hPa | - | - | - | - |
| 1777607603 | 6.67° C | 87% | 1020 hPa | - | - | - | - |
| 1777606999 | 5.56° C | 86% | 1021 hPa | - | - | - | - |
| 1777606400 | 5.56° C | 86% | 1021 hPa | - | - | - | - |
| 1777605803 | 5.56° C | 86% | 1021 hPa | - | - | - | - |
| 1777605199 | 5° C | 93% | 1021 hPa | - | - | - | - |
* Rain since midnight (hover to see other rain measurements)
** Current wind speed in m/s (hover to see current wind gust speed)